Casey, Illinois
Current Conditions -  °F | °C
As of 7:04 PM on Saturday 20 Dec 2014 (Local Time) from KMTO Reporting Station
Scattered Clouds Scattered Clouds  
Wind Chill: 20°   Ceiling: Unl
Heat Index: 28°   Visibility: 10mi
Dew Point: 24°   Wind: 8mph
Humidity: 85%   Direction: 110°ESE
Pressure: 30.26"   Gusts: NA
Location:  39.3°N, 87.99°W
Report Text: KMTO 210104Z AUTO 11007KT 10SM SCT023 M02/M04 A3026 RMK AO2 T10221044
Loading
Personal Weather Stations






























Interactive Weather Map New forecast layout! Learn more

10-Day Weather Forecast

Advertisements
Track Severe Weather on mobile